createdAt,value
2017-11-30T00:00:04.569Z,86.30
2017-11-30T00:01:04.460Z,86.11
2017-11-30T00:02:04.384Z,86.11
2017-11-30T00:03:04.283Z,86.30
2017-11-30T00:04:04.193Z,86.40
2017-11-30T00:05:04.106Z,86.11
2017-11-30T00:06:04.011Z,86.49
2017-11-30T00:07:03.946Z,85.93
2017-11-30T00:08:03.833Z,86.40
2017-11-30T00:09:03.747Z,86.59
2017-11-30T00:10:03.746Z,86.59
2017-11-30T00:11:03.565Z,86.21
2017-11-30T00:12:03.479Z,86.21
2017-11-30T00:13:03.380Z,86.40
2017-11-30T00:14:03.301Z,86.78
2017-11-30T00:15:03.202Z,86.78
2017-11-30T00:16:03.114Z,86.87
2017-11-30T00:17:03.023Z,87.35
2017-11-30T00:18:02.932Z,86.40
2017-11-30T00:19:02.845Z,86.78
2017-11-30T00:20:02.746Z,86.21
2017-11-30T00:21:02.658Z,86.30
2017-11-30T00:22:02.570Z,86.16
2017-11-30T00:23:02.483Z,87.59
2017-11-30T00:24:02.390Z,87.45
2017-11-30T00:25:02.298Z,87.16
2017-11-30T00:26:02.207Z,87.35
2017-11-30T00:27:02.112Z,87.68
2017-11-30T00:28:02.037Z,87.45
2017-11-30T00:29:01.934Z,87.16
2017-11-30T00:30:01.847Z,86.78
2017-11-30T00:31:01.757Z,86.59
2017-11-30T00:32:01.664Z,86.87
2017-11-30T00:33:01.585Z,86.59
2017-11-30T00:34:01.480Z,86.68
2017-11-30T00:35:01.396Z,87.68
2017-11-30T00:36:01.304Z,87.59
2017-11-30T00:37:01.213Z,87.54
2017-11-30T00:38:01.134Z,87.06
2017-11-30T00:39:01.031Z,87.54
2017-11-30T00:40:00.936Z,87.16
2017-11-30T00:41:00.845Z,87.06
2017-11-30T00:42:00.757Z,86.97
2017-11-30T00:43:00.672Z,86.35
2017-11-30T00:44:00.588Z,87.77
2017-11-30T00:45:00.489Z,87.68
2017-11-30T00:46:00.416Z,87.30
2017-11-30T00:47:00.307Z,87.30
2017-11-30T00:48:00.220Z,87.40
2017-11-30T00:49:00.127Z,86.97
2017-11-30T00:50:00.034Z,86.59
2017-11-30T00:50:59.978Z,86.78
2017-11-30T00:51:59.863Z,86.68
2017-11-30T00:52:59.762Z,86.68
2017-11-30T00:53:59.671Z,86.40
2017-11-30T00:54:59.604Z,86.68
2017-11-30T00:55:59.506Z,86.74
2017-11-30T00:56:59.409Z,87.12
2017-11-30T00:57:59.317Z,87.87
2017-11-30T00:58:59.217Z,87.87
2017-11-30T00:59:59.133Z,87.40
2017-11-30T01:00:59.037Z,87.16
2017-11-30T01:01:58.947Z,87.35
2017-11-30T01:02:58.861Z,87.54
2017-11-30T01:03:58.763Z,87.16
2017-11-30T01:04:58.682Z,86.68
2017-11-30T01:05:58.595Z,86.40
2017-11-30T01:06:58.500Z,86.30
2017-11-30T01:07:58.410Z,87.06
2017-11-30T01:08:58.320Z,86.74
2017-11-30T01:09:58.223Z,87.25
2017-11-30T01:10:58.139Z,86.87
2017-11-30T01:11:58.056Z,86.68
2017-11-30T01:12:57.959Z,86.97
2017-11-30T01:13:57.869Z,86.78
2017-11-30T01:14:57.785Z,86.68
2017-11-30T01:15:57.705Z,86.97
2017-11-30T01:16:57.597Z,86.68
2017-11-30T01:17:57.506Z,87.25
2017-11-30T01:18:57.422Z,87.54
2017-11-30T01:19:57.327Z,87.16
2017-11-30T01:20:57.236Z,87.06
2017-11-30T01:21:57.151Z,87.59
2017-11-30T01:22:57.054Z,87.63
2017-11-30T01:23:56.979Z,86.68
2017-11-30T01:24:56.876Z,86.78
2017-11-30T01:25:56.795Z,86.83
2017-11-30T01:26:56.694Z,87.63
2017-11-30T01:27:56.603Z,87.16
2017-11-30T01:28:56.516Z,86.68
2017-11-30T01:29:56.426Z,86.59
2017-11-30T01:30:56.333Z,86.87
2017-11-30T01:31:56.254Z,87.12
2017-11-30T01:32:56.156Z,87.21
2017-11-30T01:33:56.073Z,87.16
2017-11-30T01:34:55.978Z,87.82
2017-11-30T01:35:55.891Z,87.21
2017-11-30T01:36:55.793Z,87.40
2017-11-30T01:37:55.703Z,87.49
2017-11-30T01:38:56.607Z,87.63
2017-11-30T01:39:55.516Z,87.25
2017-11-30T01:40:55.433Z,87.16
2017-11-30T01:41:55.337Z,86.68
2017-11-30T01:42:55.257Z,86.87
2017-11-30T01:43:55.159Z,86.59
2017-11-30T01:44:55.069Z,86.30
2017-11-30T01:45:54.992Z,87.06
2017-11-30T01:46:54.886Z,86.30
2017-11-30T01:47:54.793Z,86.68
2017-11-30T01:48:54.705Z,86.68
2017-11-30T01:49:54.627Z,87.35
2017-11-30T01:50:54.537Z,87.25
2017-11-30T01:51:54.437Z,86.87
2017-11-30T01:52:54.353Z,86.78
2017-11-30T01:53:54.269Z,86.59
2017-11-30T01:54:54.168Z,86.68
2017-11-30T01:55:54.073Z,87.25
2017-11-30T01:56:53.987Z,87.68
2017-11-30T01:57:53.900Z,87.30
2017-11-30T01:58:53.800Z,87.59
2017-11-30T01:59:53.712Z,87.63
2017-11-30T02:00:53.617Z,87.45
2017-11-30T02:01:53.534Z,87.82
2017-11-30T02:02:53.439Z,86.78
2017-11-30T02:03:53.346Z,87.06
2017-11-30T02:04:53.256Z,86.68
2017-11-30T02:05:53.170Z,86.68
2017-11-30T02:06:53.079Z,86.68
2017-11-30T02:07:52.988Z,87.16
2017-11-30T02:08:52.908Z,86.97
2017-11-30T02:09:52.812Z,86.97
2017-11-30T02:10:52.726Z,86.78
2017-11-30T02:11:52.626Z,86.87
2017-11-30T02:12:52.535Z,86.21
2017-11-30T02:13:52.445Z,87.06
2017-11-30T02:14:52.369Z,86.59
2017-11-30T02:15:52.266Z,86.97
2017-11-30T02:16:52.171Z,86.68
2017-11-30T02:17:52.083Z,86.49
2017-11-30T02:18:52.006Z,86.59
2017-11-30T02:19:51.907Z,86.87
2017-11-30T02:20:51.815Z,87.21
2017-11-30T02:21:51.723Z,87.63
2017-11-30T02:22:51.639Z,86.68
2017-11-30T02:23:51.539Z,87.49
2017-11-30T02:24:51.453Z,87.77
2017-11-30T02:25:51.362Z,87.45
2017-11-30T02:26:51.266Z,86.97
2017-11-30T02:27:51.185Z,86.97
2017-11-30T02:28:51.089Z,86.87
2017-11-30T02:29:50.997Z,87.06
2017-11-30T02:30:50.908Z,86.78
2017-11-30T02:31:50.822Z,86.68
2017-11-30T02:32:50.726Z,86.83
2017-11-30T02:33:50.638Z,87.63
2017-11-30T02:34:50.541Z,87.35
2017-11-30T02:35:50.452Z,86.68
2017-11-30T02:36:50.366Z,86.97
2017-11-30T02:37:51.198Z,86.64
2017-11-30T02:38:50.181Z,87.49
2017-11-30T02:39:50.091Z,87.40
2017-11-30T02:40:49.998Z,87.54
2017-11-30T02:41:49.914Z,86.64
2017-11-30T02:42:49.822Z,86.78
2017-11-30T02:43:49.729Z,86.78
2017-11-30T02:44:49.636Z,86.64
2017-11-30T02:45:49.552Z,86.97
2017-11-30T02:46:49.460Z,86.16
2017-11-30T02:47:49.379Z,86.16
2017-11-30T02:48:49.287Z,86.35
2017-11-30T02:49:49.186Z,86.55
2017-11-30T02:50:49.095Z,86.16
2017-11-30T02:51:48.998Z,86.07
2017-11-30T02:52:48.914Z,86.83
2017-11-30T02:53:48.830Z,87.40
2017-11-30T02:54:48.734Z,87.49
2017-11-30T02:55:48.641Z,87.02
2017-11-30T02:56:48.553Z,86.93
2017-11-30T02:57:48.462Z,86.26
2017-11-30T02:58:48.368Z,86.26
2017-11-30T02:59:48.279Z,85.88
2017-11-30T03:00:48.203Z,86.64
2017-11-30T03:01:48.101Z,87.21
2017-11-30T03:02:48.013Z,87.87
2017-11-30T03:03:47.930Z,87.30
2017-11-30T03:04:47.826Z,86.83
2017-11-30T03:05:47.741Z,86.74
2017-11-30T03:06:47.647Z,86.93
2017-11-30T03:07:47.555Z,86.93
2017-11-30T03:08:47.466Z,86.83
2017-11-30T03:09:47.371Z,87.45
2017-11-30T03:10:47.277Z,87.87
2017-11-30T03:11:47.192Z,88.02
2017-11-30T03:12:47.102Z,87.68
2017-11-30T03:13:47.007Z,87.73
2017-11-30T03:14:46.927Z,88.54
2017-11-30T03:15:46.824Z,87.59
2017-11-30T03:16:46.737Z,87.40
2017-11-30T03:17:46.647Z,87.40
2017-11-30T03:18:46.560Z,87.59
2017-11-30T03:19:46.466Z,87.26
2017-11-30T03:20:46.377Z,87.45
2017-11-30T03:21:46.284Z,87.59
2017-11-30T03:22:46.192Z,87.30
2017-11-30T03:23:46.099Z,87.12
2017-11-30T03:24:46.012Z,86.45
2017-11-30T03:25:45.938Z,86.83
2017-11-30T03:26:45.830Z,86.64
2017-11-30T03:27:45.748Z,87.02
2017-11-30T03:28:45.644Z,86.83
2017-11-30T03:29:45.553Z,86.64
2017-11-30T03:30:45.469Z,86.64
2017-11-30T03:31:45.379Z,86.93
2017-11-30T03:32:45.280Z,87.35
2017-11-30T03:33:45.191Z,87.77
2017-11-30T03:34:45.108Z,87.87
2017-11-30T03:35:45.018Z,87.87
2017-11-30T03:36:45.800Z,87.87
2017-11-30T03:37:44.826Z,87.87
2017-11-30T03:38:44.742Z,87.49
2017-11-30T03:39:44.643Z,87.92
2017-11-30T03:40:44.555Z,88.49
2017-11-30T03:41:44.463Z,89.06
2017-11-30T03:42:44.372Z,88.49
2017-11-30T03:43:44.284Z,88.54
2017-11-30T03:44:44.189Z,88.06
2017-11-30T03:45:44.095Z,87.68
2017-11-30T03:46:44.011Z,87.49
2017-11-30T03:47:43.920Z,87.12
2017-11-30T03:48:43.860Z,87.40
2017-11-30T03:49:43.737Z,87.30
2017-11-30T03:50:43.642Z,87.68
2017-11-30T03:51:43.549Z,87.40
2017-11-30T03:52:43.463Z,87.87
2017-11-30T03:53:43.370Z,87.40
2017-11-30T03:54:43.280Z,87.97
2017-11-30T03:55:43.205Z,87.59
2017-11-30T03:56:43.094Z,88.25
2017-11-30T03:57:43.004Z,87.59
2017-11-30T03:58:42.918Z,87.77
2017-11-30T03:59:42.819Z,87.40
2017-11-30T04:00:42.727Z,87.45
2017-11-30T04:01:42.637Z,87.59
2017-11-30T04:02:42.544Z,88.16
2017-11-30T04:03:42.458Z,88.16
2017-11-30T04:04:42.362Z,88.54
2017-11-30T04:05:42.273Z,87.87
2017-11-30T04:06:42.180Z,88.06
2017-11-30T04:07:42.094Z,88.30
2017-11-30T04:08:41.996Z,88.63
2017-11-30T04:09:41.908Z,88.73
2017-11-30T04:10:41.812Z,88.63
2017-11-30T04:11:41.729Z,88.06
2017-11-30T04:12:41.630Z,87.30
2017-11-30T04:13:41.540Z,88.25
2017-11-30T04:14:41.452Z,88.35
2017-11-30T04:15:41.357Z,89.11
2017-11-30T04:16:41.278Z,88.44
2017-11-30T04:17:41.173Z,89.01
2017-11-30T04:18:41.088Z,87.97
2017-11-30T04:19:40.992Z,87.40
2017-11-30T04:20:40.906Z,87.77
2017-11-30T04:21:40.808Z,87.59
2017-11-30T04:22:40.717Z,88.63
2017-11-30T04:23:40.625Z,88.54
2017-11-30T04:24:40.538Z,88.82
2017-11-30T04:25:40.441Z,87.87
2017-11-30T04:26:40.359Z,88.06
2017-11-30T04:27:40.262Z,87.87
2017-11-30T04:28:40.169Z,87.49
2017-11-30T04:29:40.079Z,87.77
2017-11-30T04:30:39.990Z,87.40
2017-11-30T04:31:39.900Z,87.87
2017-11-30T04:32:39.808Z,87.87
2017-11-30T04:33:39.717Z,87.68
2017-11-30T04:34:39.627Z,87.21
2017-11-30T04:35:40.357Z,87.49
2017-11-30T04:36:39.452Z,87.49
2017-11-30T04:37:39.357Z,87.77
2017-11-30T04:38:39.270Z,87.87
2017-11-30T04:39:39.169Z,87.12
2017-11-30T04:40:39.083Z,87.49
2017-11-30T04:41:38.989Z,87.97
2017-11-30T04:42:38.899Z,87.59
2017-11-30T04:43:38.810Z,87.68
2017-11-30T04:44:38.733Z,87.59
2017-11-30T04:45:38.628Z,87.77
2017-11-30T04:46:38.541Z,87.59
2017-11-30T04:47:38.443Z,87.77
2017-11-30T04:48:38.359Z,87.30
2017-11-30T04:49:38.268Z,87.68
2017-11-30T04:50:38.173Z,87.87
2017-11-30T04:51:38.086Z,87.59
2017-11-30T04:52:37.996Z,87.87
2017-11-30T04:53:37.907Z,87.68
2017-11-30T04:54:37.808Z,87.59
2017-11-30T04:55:37.721Z,87.49
2017-11-30T04:56:37.641Z,87.97
2017-11-30T04:57:37.549Z,87.49
2017-11-30T04:58:37.454Z,87.59
2017-11-30T04:59:37.361Z,87.68
2017-11-30T05:00:37.274Z,88.16
2017-11-30T05:01:37.184Z,87.59
2017-11-30T05:02:37.085Z,87.87
2017-11-30T05:03:36.998Z,87.40
2017-11-30T05:04:36.904Z,87.87
2017-11-30T05:05:36.811Z,88.35
2017-11-30T05:06:36.726Z,89.11
2017-11-30T05:07:36.635Z,88.82
2017-11-30T05:08:36.543Z,89.11
2017-11-30T05:09:36.450Z,88.73
2017-11-30T05:10:36.375Z,88.54
2017-11-30T05:11:36.278Z,89.01
2017-11-30T05:12:36.184Z,88.82
2017-11-30T05:13:36.086Z,88.82
2017-11-30T05:14:36.004Z,89.39
2017-11-30T05:15:35.900Z,88.63
2017-11-30T05:16:35.810Z,89.48
2017-11-30T05:17:35.721Z,89.11
2017-11-30T05:18:35.630Z,88.92
2017-11-30T05:19:35.534Z,88.73
2017-11-30T05:20:35.442Z,88.73
2017-11-30T05:21:35.358Z,88.82
2017-11-30T05:22:35.261Z,89.20
2017-11-30T05:23:35.180Z,89.01
2017-11-30T05:24:35.078Z,88.92
2017-11-30T05:25:34.999Z,88.73
2017-11-30T05:26:34.906Z,88.54
2017-11-30T05:27:34.809Z,88.35
2017-11-30T05:28:34.717Z,88.73
2017-11-30T05:29:34.623Z,89.01
2017-11-30T05:30:34.535Z,88.73
2017-11-30T05:31:34.443Z,89.01
2017-11-30T05:32:34.358Z,88.92
2017-11-30T05:33:34.260Z,88.96
2017-11-30T05:34:34.962Z,88.63
2017-11-30T05:35:34.075Z,89.20
2017-11-30T05:36:33.985Z,88.92
2017-11-30T05:37:33.893Z,89.01
2017-11-30T05:38:33.807Z,88.92
2017-11-30T05:39:33.710Z,89.67
2017-11-30T05:40:33.626Z,89.34
2017-11-30T05:41:33.531Z,89.58
2017-11-30T05:42:33.435Z,89.20
2017-11-30T05:43:33.354Z,89.11
2017-11-30T05:44:33.252Z,88.87
2017-11-30T05:45:33.166Z,89.20
2017-11-30T05:46:33.072Z,89.15
2017-11-30T05:47:32.976Z,89.34
2017-11-30T05:48:32.888Z,89.29
2017-11-30T05:49:32.800Z,89.96
2017-11-30T05:50:32.706Z,88.63
2017-11-30T05:51:32.614Z,88.92
2017-11-30T05:52:32.524Z,88.92
2017-11-30T05:53:32.433Z,88.35
2017-11-30T05:54:32.345Z,88.54
2017-11-30T05:55:32.256Z,88.87
2017-11-30T05:56:32.159Z,89.25
2017-11-30T05:57:32.063Z,89.53
2017-11-30T05:58:31.974Z,89.39
2017-11-30T05:59:31.884Z,89.58
2017-11-30T06:00:31.789Z,89.53
2017-11-30T06:01:31.697Z,89.39
2017-11-30T06:02:31.609Z,89.25
2017-11-30T06:03:31.528Z,88.92
2017-11-30T06:04:31.433Z,89.20
2017-11-30T06:05:31.335Z,88.87
2017-11-30T06:06:31.245Z,89.34
2017-11-30T06:07:31.148Z,89.53
2017-11-30T06:08:31.067Z,89.58
2017-11-30T06:09:30.971Z,88.73
2017-11-30T06:10:30.887Z,88.54
2017-11-30T06:11:30.785Z,89.01
2017-11-30T06:12:30.701Z,89.11
2017-11-30T06:13:30.604Z,88.87
2017-11-30T06:14:30.515Z,88.92
2017-11-30T06:15:30.423Z,89.11
2017-11-30T06:16:30.332Z,88.87
2017-11-30T06:17:30.243Z,88.87
2017-11-30T06:18:30.149Z,89.29
2017-11-30T06:19:30.060Z,89.20
2017-11-30T06:20:29.968Z,89.77
2017-11-30T06:21:29.875Z,89.20
2017-11-30T06:22:29.784Z,88.92
2017-11-30T06:23:29.690Z,88.73
2017-11-30T06:24:29.594Z,89.01
2017-11-30T06:25:29.519Z,89.11
2017-11-30T06:26:29.419Z,89.39
2017-11-30T06:27:29.323Z,89.58
2017-11-30T06:28:29.236Z,89.77
2017-11-30T06:29:29.141Z,88.92
2017-11-30T06:30:29.056Z,89.01
2017-11-30T06:31:28.965Z,89.39
2017-11-30T06:32:28.884Z,89.58
2017-11-30T06:33:29.536Z,88.92
2017-11-30T06:34:28.688Z,89.48
2017-11-30T06:35:28.600Z,88.73
2017-11-30T06:36:28.505Z,89.01
2017-11-30T06:37:28.417Z,89.15
2017-11-30T06:38:28.328Z,89.39
2017-11-30T06:39:28.242Z,88.73
2017-11-30T06:40:28.143Z,89.53
2017-11-30T06:41:28.051Z,91.14
2017-11-30T06:42:27.968Z,90.34
2017-11-30T06:43:27.874Z,89.67
2017-11-30T06:44:27.792Z,89.86
2017-11-30T06:45:27.690Z,90.48
2017-11-30T06:46:27.593Z,90.53
2017-11-30T06:47:27.504Z,90.53
2017-11-30T06:48:27.413Z,90.10
2017-11-30T06:49:27.318Z,90.62
2017-11-30T06:50:27.226Z,90.43
2017-11-30T06:51:27.139Z,90.15
2017-11-30T06:52:27.047Z,89.34
2017-11-30T06:53:26.957Z,90.53
2017-11-30T06:54:26.864Z,90.58
2017-11-30T06:55:26.777Z,90.34
2017-11-30T06:56:26.686Z,89.77
2017-11-30T06:57:26.587Z,90.05
2017-11-30T06:58:26.499Z,89.39
2017-11-30T06:59:26.407Z,89.58
2017-11-30T07:00:26.315Z,89.39
2017-11-30T07:01:26.226Z,89.86
2017-11-30T07:02:26.136Z,89.77
2017-11-30T07:03:26.044Z,90.43
2017-11-30T07:04:25.962Z,90.05
2017-11-30T07:05:25.863Z,89.39
2017-11-30T07:06:25.770Z,88.82
2017-11-30T07:07:25.698Z,89.20
2017-11-30T07:08:25.590Z,88.73
2017-11-30T07:09:25.501Z,89.01
2017-11-30T07:10:25.405Z,89.01
2017-11-30T07:11:25.317Z,88.82
2017-11-30T07:12:25.224Z,89.20
2017-11-30T07:13:25.131Z,89.58
2017-11-30T07:14:25.049Z,90.05
2017-11-30T07:15:24.952Z,90.34
2017-11-30T07:16:24.873Z,89.77
2017-11-30T07:17:24.770Z,89.20
2017-11-30T07:18:24.679Z,89.58
2017-11-30T07:19:24.586Z,89.39
2017-11-30T07:20:24.497Z,89.29
2017-11-30T07:21:24.403Z,89.58
2017-11-30T07:22:24.317Z,89.39
2017-11-30T07:23:24.220Z,89.20
2017-11-30T07:24:24.130Z,90.15
2017-11-30T07:25:24.042Z,89.20
2017-11-30T07:26:23.957Z,89.58
2017-11-30T07:27:23.858Z,89.58
2017-11-30T07:28:23.794Z,89.67
2017-11-30T07:29:23.676Z,90.05
2017-11-30T07:30:23.598Z,89.96
2017-11-30T07:31:23.499Z,90.43
2017-11-30T07:32:24.136Z,90.34
2017-11-30T07:33:23.312Z,89.48
2017-11-30T07:34:23.228Z,89.39
2017-11-30T07:35:23.126Z,89.20
2017-11-30T07:36:23.045Z,89.15
2017-11-30T07:37:22.951Z,89.67
2017-11-30T07:38:22.857Z,90.15
2017-11-30T07:39:22.762Z,89.39
2017-11-30T07:40:22.679Z,89.20
2017-11-30T07:41:22.593Z,90.20
2017-11-30T07:42:22.493Z,90.86
2017-11-30T07:43:22.406Z,90.91
2017-11-30T07:44:22.309Z,90.72
2017-11-30T07:45:22.225Z,89.96
2017-11-30T07:46:22.128Z,89.11
2017-11-30T07:47:22.035Z,88.92
2017-11-30T07:48:21.947Z,88.35
2017-11-30T07:49:21.875Z,88.92
2017-11-30T07:50:21.768Z,88.92
2017-11-30T07:51:21.679Z,88.63
2017-11-30T07:52:21.586Z,89.29
2017-11-30T07:53:21.492Z,89.58
2017-11-30T07:54:21.418Z,89.39
2017-11-30T07:55:21.316Z,88.73
2017-11-30T07:56:21.222Z,89.20
2017-11-30T07:57:21.134Z,89.20
2017-11-30T07:58:21.040Z,88.73
2017-11-30T07:59:20.948Z,89.29
2017-11-30T08:00:20.865Z,89.48
2017-11-30T08:01:20.766Z,89.11
2017-11-30T08:02:20.679Z,89.11
2017-11-30T08:03:20.596Z,88.92
2017-11-30T08:04:20.499Z,88.92
2017-11-30T08:05:20.415Z,88.82
2017-11-30T08:06:20.327Z,88.92
2017-11-30T08:07:20.227Z,88.63
2017-11-30T08:08:20.145Z,89.11
2017-11-30T08:09:20.043Z,89.01
2017-11-30T08:10:19.960Z,89.01
2017-11-30T08:11:19.860Z,89.39
2017-11-30T08:12:19.764Z,89.20
2017-11-30T08:13:19.676Z,88.92
2017-11-30T08:14:19.590Z,89.01
2017-11-30T08:15:19.498Z,88.92
2017-11-30T08:16:19.407Z,89.39
2017-11-30T08:17:19.320Z,89.58
2017-11-30T08:18:19.226Z,90.01
2017-11-30T08:19:19.135Z,90.53
2017-11-30T08:20:19.053Z,90.34
2017-11-30T08:21:18.951Z,89.39
2017-11-30T08:22:18.863Z,89.29
2017-11-30T08:23:18.780Z,88.92
2017-11-30T08:24:18.684Z,88.54
2017-11-30T08:25:18.593Z,88.44
2017-11-30T08:26:18.500Z,88.92
2017-11-30T08:27:18.409Z,88.54
2017-11-30T08:28:18.323Z,89.01
2017-11-30T08:29:18.253Z,88.73
2017-11-30T08:30:18.139Z,88.73
2017-11-30T08:31:18.701Z,89.01
2017-11-30T08:32:17.960Z,89.01
2017-11-30T08:33:17.866Z,88.73
2017-11-30T08:34:17.776Z,89.29
2017-11-30T08:35:17.687Z,89.29
2017-11-30T08:36:17.596Z,89.29
2017-11-30T08:37:17.521Z,88.73
2017-11-30T08:38:17.411Z,88.92
2017-11-30T08:39:17.322Z,88.82
2017-11-30T08:40:17.234Z,88.92
2017-11-30T08:41:17.138Z,89.58
2017-11-30T08:42:17.051Z,89.77
2017-11-30T08:43:16.972Z,89.58
2017-11-30T08:44:16.870Z,88.92
2017-11-30T08:45:16.805Z,88.73
2017-11-30T08:46:16.690Z,89.20
2017-11-30T08:47:16.609Z,90.34
2017-11-30T08:48:16.506Z,89.58
2017-11-30T08:49:16.422Z,88.73
2017-11-30T08:50:16.327Z,88.54
2017-11-30T08:51:16.234Z,88.35
2017-11-30T08:52:16.142Z,88.44
2017-11-30T08:53:16.050Z,88.54
2017-11-30T08:54:15.962Z,89.01
2017-11-30T08:55:15.880Z,88.54
2017-11-30T08:56:15.782Z,89.29
2017-11-30T08:57:15.690Z,89.01
2017-11-30T08:58:15.600Z,89.01
2017-11-30T08:59:15.501Z,89.39
2017-11-30T09:00:15.418Z,89.48
2017-11-30T09:01:15.328Z,88.92
2017-11-30T09:02:15.237Z,88.92
2017-11-30T09:03:15.144Z,88.63
2017-11-30T09:04:15.064Z,88.92
2017-11-30T09:05:14.972Z,88.54
2017-11-30T09:06:14.884Z,88.63
2017-11-30T09:07:14.809Z,88.25
2017-11-30T09:08:14.699Z,89.01
2017-11-30T09:09:14.604Z,88.82
2017-11-30T09:10:14.517Z,89.48
2017-11-30T09:11:14.425Z,89.39
2017-11-30T09:12:14.336Z,89.29
2017-11-30T09:13:14.245Z,89.39
2017-11-30T09:14:14.151Z,88.82
2017-11-30T09:15:14.060Z,89.29
2017-11-30T09:16:13.964Z,88.92
2017-11-30T09:17:13.881Z,89.58
2017-11-30T09:18:13.789Z,89.77
2017-11-30T09:19:13.720Z,89.58
2017-11-30T09:20:13.610Z,89.96
2017-11-30T09:21:13.513Z,89.29
2017-11-30T09:22:13.428Z,88.92
2017-11-30T09:23:13.339Z,89.86
2017-11-30T09:24:13.245Z,89.39
2017-11-30T09:25:13.159Z,89.58
2017-11-30T09:26:13.079Z,90.05
2017-11-30T09:27:12.987Z,90.34
2017-11-30T09:28:12.884Z,89.58
2017-11-30T09:29:12.801Z,89.86
2017-11-30T09:30:13.307Z,89.77
2017-11-30T09:31:12.617Z,90.43
2017-11-30T09:32:12.523Z,89.86
2017-11-30T09:33:12.431Z,90.34
2017-11-30T09:34:12.346Z,90.53
2017-11-30T09:35:12.254Z,89.77
2017-11-30T09:36:12.159Z,90.34
2017-11-30T09:37:12.069Z,90.91
2017-11-30T09:38:11.987Z,90.72
2017-11-30T09:39:11.924Z,90.81
2017-11-30T09:40:11.828Z,91.28
2017-11-30T09:41:11.706Z,90.91
2017-11-30T09:42:11.631Z,91.00
2017-11-30T09:43:11.538Z,90.15
2017-11-30T09:44:11.441Z,90.05
2017-11-30T09:45:11.342Z,90.34
2017-11-30T09:46:11.257Z,90.34
2017-11-30T09:47:11.162Z,89.67
2017-11-30T09:48:11.078Z,89.53
2017-11-30T09:49:10.984Z,89.67
2017-11-30T09:50:10.896Z,89.58
2017-11-30T09:51:10.809Z,89.11
2017-11-30T09:52:10.713Z,89.58
2017-11-30T09:53:10.623Z,90.34
2017-11-30T09:54:10.533Z,89.58
2017-11-30T09:55:10.444Z,90.05
2017-11-30T09:56:10.394Z,89.96
2017-11-30T09:57:10.272Z,90.15
2017-11-30T09:58:10.179Z,89.39
2017-11-30T09:59:10.083Z,89.25
2017-11-30T10:00:09.995Z,88.87
2017-11-30T10:01:09.905Z,88.73
2017-11-30T10:02:09.827Z,88.73
2017-11-30T10:03:09.720Z,89.11
2017-11-30T10:04:09.653Z,88.92
2017-11-30T10:05:09.552Z,88.92
2017-11-30T10:06:09.448Z,88.92
2017-11-30T10:07:09.364Z,89.11
2017-11-30T10:08:09.272Z,89.39
2017-11-30T10:09:09.176Z,88.73
2017-11-30T10:10:09.097Z,88.82
2017-11-30T10:11:08.994Z,89.20
2017-11-30T10:12:08.903Z,89.39
2017-11-30T10:13:08.810Z,89.58
2017-11-30T10:14:08.737Z,89.86
2017-11-30T10:15:08.627Z,89.96
2017-11-30T10:16:08.541Z,89.15
2017-11-30T10:17:08.446Z,89.11
2017-11-30T10:18:08.360Z,88.87
2017-11-30T10:19:08.272Z,89.15
2017-11-30T10:20:08.184Z,89.25
2017-11-30T10:21:08.091Z,88.68
2017-11-30T10:22:07.993Z,88.96
2017-11-30T10:23:07.908Z,88.96
2017-11-30T10:24:07.828Z,88.68
2017-11-30T10:25:07.723Z,88.68
2017-11-30T10:26:07.645Z,88.39
2017-11-30T10:27:07.554Z,88.77
2017-11-30T10:28:07.462Z,88.87
2017-11-30T10:29:07.882Z,87.63
2017-11-30T10:30:07.289Z,88.10
2017-11-30T10:31:07.186Z,87.54
2017-11-30T10:32:07.105Z,87.82
2017-11-30T10:33:07.009Z,87.92
2017-11-30T10:34:06.925Z,87.82
2017-11-30T10:35:06.832Z,87.73
2017-11-30T10:36:06.745Z,87.82
2017-11-30T10:37:06.687Z,87.63
2017-11-30T10:38:06.561Z,87.25
2017-11-30T10:39:06.464Z,87.25
2017-11-30T10:40:06.379Z,87.92
2017-11-30T10:41:06.294Z,87.54
2017-11-30T10:42:06.206Z,87.45
2017-11-30T10:43:06.113Z,88.20
2017-11-30T10:44:06.020Z,87.92
2017-11-30T10:45:05.963Z,87.63
2017-11-30T10:46:05.860Z,87.45
2017-11-30T10:47:05.753Z,87.73
2017-11-30T10:48:05.659Z,87.45
2017-11-30T10:49:05.581Z,87.25
2017-11-30T10:50:05.485Z,87.92
2017-11-30T10:51:06.337Z,87.73
2017-11-30T10:52:05.306Z,87.35
2017-11-30T10:53:05.214Z,87.54
2017-11-30T10:54:05.131Z,87.73
2017-11-30T10:55:05.033Z,87.92
2017-11-30T10:56:04.947Z,87.73
2017-11-30T10:57:04.858Z,87.73
2017-11-30T10:58:04.795Z,87.45
2017-11-30T10:59:04.681Z,87.25
2017-11-30T11:00:04.587Z,87.73
2017-11-30T11:01:04.499Z,87.35
2017-11-30T11:02:04.410Z,87.06
2017-11-30T11:03:04.319Z,87.45
2017-11-30T11:04:04.227Z,87.54
2017-11-30T11:05:04.140Z,87.73
2017-11-30T11:06:04.045Z,87.82
2017-11-30T11:07:03.962Z,87.45
2017-11-30T11:08:03.881Z,87.63
2017-11-30T11:09:03.783Z,87.35
2017-11-30T11:10:03.694Z,87.63
2017-11-30T11:11:03.604Z,88.87
2017-11-30T11:12:03.513Z,88.68
2017-11-30T11:13:03.430Z,88.01
2017-11-30T11:14:03.361Z,87.73
2017-11-30T11:15:03.245Z,87.73
2017-11-30T11:16:03.146Z,88.29
2017-11-30T11:17:03.069Z,87.82
2017-11-30T11:18:02.968Z,87.54
2017-11-30T11:19:02.873Z,88.58
2017-11-30T11:20:02.788Z,88.29
2017-11-30T11:21:02.704Z,87.63
2017-11-30T11:22:02.612Z,87.82
2017-11-30T11:23:02.517Z,88.68
2017-11-30T11:24:02.423Z,88.48
2017-11-30T11:25:02.353Z,87.45
2017-11-30T11:26:02.257Z,87.73
2017-11-30T11:27:02.170Z,87.63
2017-11-30T11:28:02.487Z,88.10
2017-11-30T11:29:01.981Z,88.87
2017-11-30T11:30:01.902Z,87.87
2017-11-30T11:31:01.805Z,88.15
2017-11-30T11:32:01.715Z,88.06
2017-11-30T11:33:01.624Z,87.77
2017-11-30T11:34:01.538Z,87.87
2017-11-30T11:35:01.436Z,88.01
2017-11-30T11:36:01.359Z,88.20
2017-11-30T11:37:01.264Z,88.87
2017-11-30T11:38:01.182Z,89.34
2017-11-30T11:39:01.097Z,89.00
2017-11-30T11:40:00.990Z,88.91
2017-11-30T11:41:00.916Z,88.15
2017-11-30T11:42:00.810Z,88.15
2017-11-30T11:43:00.723Z,87.96
2017-11-30T11:44:00.632Z,87.77
2017-11-30T11:45:00.543Z,87.87
2017-11-30T11:46:00.456Z,87.58
2017-11-30T11:47:00.369Z,87.87
2017-11-30T11:48:00.276Z,87.87
2017-11-30T11:49:00.182Z,87.68
2017-11-30T11:50:00.095Z,87.58
2017-11-30T11:51:00.007Z,87.82
2017-11-30T11:51:59.926Z,87.58
2017-11-30T11:52:59.827Z,87.87
2017-11-30T11:53:59.743Z,87.96
2017-11-30T11:54:59.651Z,87.87
2017-11-30T11:55:59.564Z,87.49
2017-11-30T11:56:59.471Z,87.63
2017-11-30T11:57:59.373Z,87.92
2017-11-30T11:58:59.297Z,87.82
2017-11-30T11:59:59.199Z,88.68
2017-11-30T12:00:59.109Z,88.20
2017-11-30T12:01:59.012Z,88.87
2017-11-30T12:02:58.921Z,88.01
2017-11-30T12:03:58.829Z,88.87
2017-11-30T12:04:58.751Z,88.06
2017-11-30T12:05:58.655Z,88.15
2017-11-30T12:06:58.559Z,87.49
2017-11-30T12:07:58.470Z,88.01
2017-11-30T12:08:58.388Z,88.68
2017-11-30T12:09:58.294Z,88.39
2017-11-30T12:10:58.206Z,88.29
2017-11-30T12:11:58.113Z,88.39
2017-11-30T12:12:58.025Z,87.77
2017-11-30T12:13:57.957Z,87.58
2017-11-30T12:14:57.844Z,87.87
2017-11-30T12:15:57.748Z,87.92
2017-11-30T12:16:57.657Z,87.82
2017-11-30T12:17:57.572Z,88.06
2017-11-30T12:18:57.481Z,87.77
2017-11-30T12:19:57.388Z,87.87
2017-11-30T12:20:57.297Z,87.96
2017-11-30T12:21:57.212Z,87.68
2017-11-30T12:22:57.112Z,87.68
2017-11-30T12:23:57.028Z,87.58
2017-11-30T12:24:56.934Z,87.68
2017-11-30T12:25:56.839Z,87.58
2017-11-30T12:26:57.049Z,87.11
2017-11-30T12:27:56.665Z,87.11
2017-11-30T12:28:56.576Z,86.72
2017-11-30T12:29:56.497Z,87.20
2017-11-30T12:30:56.401Z,86.82
2017-11-30T12:31:56.308Z,87.68
2017-11-30T12:32:56.219Z,87.30
2017-11-30T12:33:56.131Z,87.20
2017-11-30T12:34:56.034Z,87.68
2017-11-30T12:35:55.945Z,87.92
2017-11-30T12:36:55.861Z,87.68
2017-11-30T12:37:55.767Z,87.92
2017-11-30T12:38:55.678Z,87.45
2017-11-30T12:39:55.586Z,87.63
2017-11-30T12:40:55.496Z,88.10
2017-11-30T12:41:55.414Z,88.68
2017-11-30T12:42:55.312Z,88.20
2017-11-30T12:43:55.224Z,88.39
2017-11-30T12:44:55.134Z,88.48
2017-11-30T12:45:55.039Z,88.53
2017-11-30T12:46:54.950Z,88.68
2017-11-30T12:47:54.866Z,88.43
2017-11-30T12:48:54.809Z,87.77
2017-11-30T12:49:54.677Z,88.06
2017-11-30T12:50:54.586Z,88.91